createdAt,value
2018-04-01T00:01:57.142Z,100145.02
2018-04-01T00:04:24.619Z,100146.41
2018-04-01T00:06:53.136Z,100149.86
2018-04-01T00:09:20.665Z,100154.81
2018-04-01T00:11:48.144Z,100153.72
2018-04-01T00:14:15.651Z,100150.42
2018-04-01T00:16:43.132Z,100145.70
2018-04-01T00:19:11.236Z,100152.77
2018-04-01T00:21:38.733Z,100155.66
2018-04-01T00:24:07.048Z,100159.66
2018-04-01T00:26:34.617Z,100167.03
2018-04-01T00:29:02.096Z,100170.09
2018-04-01T00:31:29.601Z,100165.16
2018-04-01T00:33:57.340Z,100168.40
2018-04-01T00:36:24.813Z,100167.55
2018-04-01T00:38:53.147Z,100165.59
2018-04-01T00:41:20.641Z,100163.45
2018-04-01T00:43:48.136Z,100159.63
2018-04-01T00:46:15.668Z,100158.53
2018-04-01T00:48:44.637Z,100159.44
2018-04-01T00:51:12.972Z,100158.71
2018-04-01T00:53:40.878Z,100155.37
2018-04-01T00:56:08.369Z,100158.92
2018-04-01T00:58:37.291Z,100150.38
2018-04-01T01:01:04.867Z,100152.15
2018-04-01T01:03:32.470Z,100156.36
2018-04-01T01:05:59.960Z,100154.85
2018-04-01T01:08:27.553Z,100154.92
2018-04-01T01:10:55.249Z,100151.06
2018-04-01T01:13:22.732Z,100152.47
2018-04-01T01:15:51.007Z,100148.22
2018-04-01T01:18:20.159Z,100152.42
2018-04-01T01:20:47.628Z,100153.52
2018-04-01T01:23:15.167Z,100165.73
2018-04-01T01:25:42.675Z,100159.63
2018-04-01T01:28:11.005Z,100154.44
2018-04-01T01:30:38.487Z,100152.99
2018-04-01T01:33:06.020Z,100150.56
2018-04-01T01:35:34.050Z,100153.58
2018-04-01T01:38:02.312Z,100151.55
2018-04-01T01:40:29.796Z,100154.44
2018-04-01T01:42:58.035Z,100160.26
2018-04-01T01:45:25.542Z,100150.42
2018-04-01T01:47:53.023Z,100151.64
2018-04-01T01:50:21.223Z,100155.20
2018-04-01T01:52:48.733Z,100153.52
2018-04-01T01:55:16.625Z,100150.03
2018-04-01T01:57:44.216Z,100153.62
2018-04-01T02:00:12.004Z,100150.13
2018-04-01T02:02:39.516Z,100147.79
2018-04-01T02:05:07.017Z,100148.66
2018-04-01T02:07:34.537Z,100156.88
2018-04-01T02:10:02.083Z,100156.42
2018-04-01T02:12:29.569Z,100155.19
2018-04-01T02:14:57.113Z,100158.53
2018-04-01T02:17:24.639Z,100162.70
2018-04-01T02:19:52.124Z,100167.84
2018-04-01T02:22:19.840Z,100168.14
2018-04-01T02:24:47.309Z,100170.72
2018-04-01T02:27:15.571Z,100166.47
2018-04-01T02:29:43.097Z,100170.02
2018-04-01T02:32:10.589Z,100164.64
2018-04-01T02:34:38.078Z,100166.51
2018-04-01T02:37:06.341Z,100169.66
2018-04-01T02:39:34.691Z,100172.08
2018-04-01T02:42:02.173Z,100172.05
2018-04-01T02:44:29.985Z,100167.59
2018-04-01T02:46:57.464Z,100164.33
2018-04-01T02:49:25.030Z,100164.39
2018-04-01T02:51:52.521Z,100163.84
2018-04-01T02:54:20.000Z,100167.32
2018-04-01T02:56:48.290Z,100164.41
2018-04-01T02:59:15.766Z,100169.81
2018-04-01T03:01:43.251Z,100169.70
2018-04-01T03:04:10.766Z,100172.76
2018-04-01T03:06:38.420Z,100175.25
2018-04-01T03:09:05.918Z,100170.41
2018-04-01T03:11:33.404Z,100174.76
2018-04-01T03:14:01.673Z,100167.20
2018-04-01T03:16:29.148Z,100172.13
2018-04-01T03:18:56.652Z,100170.61
2018-04-01T03:21:24.854Z,100170.05
2018-04-01T03:23:52.340Z,100169.42
2018-04-01T03:26:19.973Z,100174.34
2018-04-01T03:28:47.670Z,100177.36
2018-04-01T03:31:15.145Z,100174.72
2018-04-01T03:33:43.429Z,100178.20
2018-04-01T03:36:11.665Z,100183.39
2018-04-01T03:38:39.184Z,100186.48
2018-04-01T03:41:06.761Z,100180.94
2018-04-01T03:43:34.251Z,100189.58
2018-04-01T03:46:01.757Z,100183.86
2018-04-01T03:48:29.252Z,100185.92
2018-04-01T03:50:56.789Z,100184.20
2018-04-01T03:53:24.368Z,100197.20
2018-04-01T03:55:51.889Z,100196.31
2018-04-01T03:58:20.146Z,100194.67
2018-04-01T04:00:47.630Z,100201.06
2018-04-01T04:03:15.135Z,100204.22
2018-04-01T04:05:42.607Z,100208.47
2018-04-01T04:08:10.100Z,100211.88
2018-04-01T04:10:37.583Z,100206.47
2018-04-01T04:13:05.169Z,100214.79
2018-04-01T04:15:32.680Z,100212.92
2018-04-01T04:18:00.168Z,100218.83
2018-04-01T04:20:28.468Z,100220.58
2018-04-01T04:22:55.970Z,100222.75
2018-04-01T04:25:24.206Z,100226.41
2018-04-01T04:27:51.704Z,100231.53
2018-04-01T04:30:19.990Z,100234.42
2018-04-01T04:32:48.229Z,100235.22
2018-04-01T04:35:15.716Z,100232.20
2018-04-01T04:37:43.998Z,100231.85
2018-04-01T04:40:12.256Z,100236.55
2018-04-01T04:42:39.771Z,100231.89
2018-04-01T04:45:07.251Z,100237.89
2018-04-01T04:47:34.741Z,100237.22
2018-04-01T04:50:03.064Z,100237.68
2018-04-01T04:52:30.537Z,100235.26
2018-04-01T04:54:58.748Z,100243.83
2018-04-01T04:57:27.024Z,100238.80
2018-04-01T04:59:54.514Z,100239.85
2018-04-01T05:02:21.997Z,100239.75
2018-04-01T05:04:50.363Z,100237.19
2018-04-01T05:07:17.984Z,100247.19
2018-04-01T05:09:45.508Z,100243.15
2018-04-01T05:12:13.007Z,100245.04
2018-04-01T05:14:40.485Z,100247.78
2018-04-01T05:17:08.180Z,100248.50
2018-04-01T05:19:35.729Z,100253.37
2018-04-01T05:22:03.199Z,100255.20
2018-04-01T05:24:30.802Z,100260.57
2018-04-01T05:26:58.301Z,100266.15
2018-04-01T05:29:26.636Z,100264.20
2018-04-01T05:31:54.158Z,100267.32
2018-04-01T05:34:22.057Z,100270.69
2018-04-01T05:36:49.549Z,100257.67
2018-04-01T05:39:17.881Z,100268.16
2018-04-01T05:41:46.080Z,100259.49
2018-04-01T05:44:13.611Z,100272.62
2018-04-01T05:46:41.268Z,100272.91
2018-04-01T05:49:08.748Z,100279.09
2018-04-01T05:51:36.239Z,100277.89
2018-04-01T05:54:04.775Z,100278.56
2018-04-01T05:56:32.260Z,100285.94
2018-04-01T05:58:59.744Z,100283.99
2018-04-01T06:01:28.015Z,100281.13
2018-04-01T06:03:56.998Z,100284.81
2018-04-01T06:06:24.491Z,100291.06
2018-04-01T06:08:52.272Z,100292.50
2018-04-01T06:11:19.756Z,100298.78
2018-04-01T06:13:47.768Z,100304.09
2018-04-01T06:16:16.111Z,100302.48
2018-04-01T06:18:43.596Z,100307.82
2018-04-01T06:21:11.081Z,100306.86
2018-04-01T06:23:38.761Z,100302.63
2018-04-01T06:26:06.809Z,100300.91
2018-04-01T06:28:35.068Z,100304.70
2018-04-01T06:31:02.566Z,100306.20
2018-04-01T06:33:30.676Z,100313.02
2018-04-01T06:35:58.168Z,100317.30
2018-04-01T06:38:26.484Z,100324.75
2018-04-01T06:40:54.478Z,100326.30
2018-04-01T06:43:22.013Z,100332.28
2018-04-01T06:45:49.752Z,100333.66
2018-04-01T06:48:18.291Z,100333.81
2018-04-01T06:50:45.829Z,100334.67
2018-04-01T06:53:14.240Z,100334.59
2018-04-01T06:55:42.139Z,100342.88
2018-04-01T06:58:11.014Z,100339.80
2018-04-01T07:00:38.508Z,100342.78
2018-04-01T07:03:05.992Z,100344.22
2018-04-01T07:05:33.472Z,100349.55
2018-04-01T07:08:01.041Z,100350.16
2018-04-01T07:10:28.566Z,100352.30
2018-04-01T07:12:56.076Z,100348.70
2018-04-01T07:15:23.558Z,100347.29
2018-04-01T07:17:51.054Z,100346.48
2018-04-01T07:20:18.618Z,100350.10
2018-04-01T07:22:46.115Z,100346.17
2018-04-01T07:25:13.596Z,100349.86
2018-04-01T07:27:41.097Z,100361.81
2018-04-01T07:30:08.639Z,100357.80
2018-04-01T07:32:36.432Z,100366.98
2018-04-01T07:35:03.895Z,100362.77
2018-04-01T07:37:31.381Z,100376.61
2018-04-01T07:39:59.005Z,100370.42
2018-04-01T07:42:26.492Z,100368.70
2018-04-01T07:44:53.978Z,100374.36
2018-04-01T07:47:22.249Z,100376.83
2018-04-01T07:49:50.524Z,100372.92
2018-04-01T07:52:19.088Z,100373.41
2018-04-01T07:54:46.603Z,100375.63
2018-04-01T07:57:14.108Z,100369.62
2018-04-01T07:59:41.575Z,100371.51
2018-04-01T08:02:10.219Z,100376.75
2018-04-01T08:04:38.265Z,100373.05
2018-04-01T08:07:05.741Z,100373.34
2018-04-01T08:09:33.327Z,100370.23
2018-04-01T08:12:00.901Z,100370.48
2018-04-01T08:14:28.396Z,100374.83
2018-04-01T08:16:56.674Z,100370.92
2018-04-01T08:19:24.929Z,100380.16
2018-04-01T08:21:52.418Z,100383.37
2018-04-01T08:24:20.300Z,100388.73
2018-04-01T08:26:47.853Z,100394.59
2018-04-01T08:29:15.329Z,100389.67
2018-04-01T08:31:43.101Z,100393.33
2018-04-01T08:34:10.589Z,100388.65
2018-04-01T08:36:38.109Z,100397.20
2018-04-01T08:39:05.636Z,100398.92
2018-04-01T08:41:33.883Z,100401.28
2018-04-01T08:44:01.363Z,100402.05
2018-04-01T08:46:29.633Z,100402.48
2018-04-01T08:48:57.103Z,100409.75
2018-04-01T08:51:25.426Z,100407.56
2018-04-01T08:53:52.904Z,100414.84
2018-04-01T08:56:20.406Z,100412.30
2018-04-01T08:58:49.058Z,100410.35
2018-04-01T09:01:17.329Z,100414.86
2018-04-01T09:03:44.804Z,100408.64
2018-04-01T09:06:12.343Z,100407.63
2018-04-01T09:08:39.842Z,100406.75
2018-04-01T09:11:08.120Z,100413.64
2018-04-01T09:13:36.372Z,100408.45
2018-04-01T09:16:04.101Z,100410.37
2018-04-01T09:18:31.612Z,100412.48
2018-04-01T09:20:59.089Z,100427.69
2018-04-01T09:23:26.975Z,100433.44
2018-04-01T09:25:54.450Z,100434.38
2018-04-01T09:28:21.941Z,100435.52
2018-04-01T09:30:49.427Z,100434.34
2018-04-01T09:33:17.723Z,100429.63
2018-04-01T09:35:45.218Z,100434.27
2018-04-01T09:38:13.343Z,100442.99
2018-04-01T09:40:40.861Z,100443.48
2018-04-01T09:43:08.429Z,100442.12
2018-04-01T09:45:35.900Z,100447.22
2018-04-01T09:48:03.551Z,100449.05
2018-04-01T09:50:31.034Z,100445.38
2018-04-01T09:52:59.997Z,100450.91
2018-04-01T09:55:27.521Z,100450.59
2018-04-01T09:57:55.181Z,100452.09
2018-04-01T10:00:25.567Z,100454.22
2018-04-01T10:02:54.619Z,100454.98
2018-04-01T10:05:22.889Z,100458.72
2018-04-01T10:07:51.190Z,100453.30
2018-04-01T10:10:19.471Z,100457.14
2018-04-01T10:12:47.966Z,100457.87
2018-04-01T10:15:16.327Z,100454.93
2018-04-01T10:17:45.359Z,100454.19
2018-04-01T10:20:16.156Z,100451.44
2018-04-01T10:22:45.137Z,100444.06
2018-04-01T10:25:13.416Z,100446.50
2018-04-01T10:27:41.797Z,100448.81
2018-04-01T10:30:10.057Z,100457.09
2018-04-01T10:32:38.369Z,100453.24
2018-04-01T10:35:06.630Z,100459.83
2018-04-01T10:37:34.901Z,100463.20
2018-04-01T10:40:09.917Z,100470.64
2018-04-01T10:42:39.389Z,100471.44
2018-04-01T10:45:10.691Z,100475.56
2018-04-01T10:47:39.701Z,100477.23
2018-04-01T10:50:08.056Z,100473.55
2018-04-01T10:52:36.556Z,100474.78
2018-04-01T10:55:04.079Z,100484.32
2018-04-01T10:57:33.093Z,100486.50
2018-04-01T11:00:00.655Z,100484.94
2018-04-01T11:02:29.172Z,100480.05
2018-04-01T11:04:56.669Z,100485.81
2018-04-01T11:07:25.289Z,100483.08
2018-04-01T11:09:52.801Z,100489.47
2018-04-01T11:12:20.276Z,100490.19
2018-04-01T11:14:48.652Z,100493.67
2018-04-01T11:17:17.315Z,100497.95
2018-04-01T11:19:44.802Z,100497.62
2018-04-01T11:22:13.049Z,100503.59
2018-04-01T11:24:40.543Z,100502.41
2018-04-01T11:27:08.041Z,100505.17
2018-04-01T11:29:36.835Z,100509.56
2018-04-01T11:32:05.187Z,100509.16
2018-04-01T11:34:32.803Z,100510.50
2018-04-01T11:37:00.328Z,100510.80
2018-04-01T11:39:27.812Z,100522.44
2018-04-01T11:41:55.293Z,100520.88
2018-04-01T11:44:23.537Z,100517.44
2018-04-01T11:46:51.393Z,100521.27
2018-04-01T11:49:18.957Z,100518.64
2018-04-01T11:51:46.424Z,100518.20
2018-04-01T11:54:14.070Z,100522.02
2018-04-01T11:56:41.553Z,100512.28
2018-04-01T11:59:09.016Z,100523.02
2018-04-01T12:01:36.516Z,100518.97
2018-04-01T12:04:04.133Z,100514.42
2018-04-01T12:06:31.660Z,100520.30
2018-04-01T12:08:59.203Z,100522.63
2018-04-01T12:11:26.684Z,100523.73
2018-04-01T12:13:54.155Z,100529.27
2018-04-01T12:16:21.659Z,100532.66
2018-04-01T12:18:49.999Z,100535.55
2018-04-01T12:21:17.492Z,100528.37
2018-04-01T12:23:45.203Z,100531.45
2018-04-01T12:26:12.672Z,100533.34
2018-04-01T12:28:40.939Z,100537.56
2018-04-01T12:31:08.527Z,100533.78
2018-04-01T12:33:36.044Z,100532.61
2018-04-01T12:36:03.759Z,100528.70
2018-04-01T12:38:31.260Z,100528.43
2018-04-01T12:40:58.736Z,100528.63
2018-04-01T12:43:26.312Z,100527.84
2018-04-01T12:45:53.827Z,100526.66
2018-04-01T12:48:22.692Z,100529.98
2018-04-01T12:50:50.213Z,100533.06
2018-04-01T12:53:17.718Z,100535.48
2018-04-01T12:55:45.207Z,100537.70
2018-04-01T12:58:13.620Z,100538.56
2018-04-01T13:00:41.099Z,100533.17
2018-04-01T13:03:08.648Z,100541.41
2018-04-01T13:05:36.140Z,100532.66
2018-04-01T13:08:05.016Z,100532.41
2018-04-01T13:10:32.546Z,100536.61
2018-04-01T13:13:00.263Z,100543.00
2018-04-01T13:15:27.730Z,100536.66
2018-04-01T13:17:56.386Z,100529.97
2018-04-01T13:20:24.096Z,100522.95
2018-04-01T13:22:51.568Z,100517.98
2018-04-01T13:25:19.060Z,100521.77
2018-04-01T13:27:46.568Z,100522.53
2018-04-01T13:30:14.044Z,100525.88
2018-04-01T13:32:41.605Z,100525.62
2018-04-01T13:35:09.183Z,100515.59
2018-04-01T13:37:37.602Z,100509.68
2018-04-01T13:40:05.343Z,100502.93
2018-04-01T13:42:32.850Z,100516.59
2018-04-01T13:45:01.104Z,100509.09
2018-04-01T13:47:28.616Z,100507.91
2018-04-01T13:49:56.103Z,100511.11
2018-04-01T13:52:23.576Z,100506.34
2018-04-01T13:54:51.301Z,100514.82
2018-04-01T13:57:18.803Z,100512.25
2018-04-01T13:59:46.280Z,100515.72
2018-04-01T14:02:14.539Z,100523.09
2018-04-01T14:04:42.066Z,100530.58
2018-04-01T14:07:09.524Z,100535.41
2018-04-01T14:09:37.780Z,100532.47
2018-04-01T14:12:05.277Z,100541.47
2018-04-01T14:14:32.768Z,100540.39
2018-04-01T14:17:01.121Z,100542.02
2018-04-01T14:19:28.643Z,100540.08
2018-04-01T14:21:56.133Z,100538.13
2018-04-01T14:24:23.600Z,100549.20
2018-04-01T14:26:52.020Z,100540.35
2018-04-01T14:29:19.511Z,100539.83
2018-04-01T14:31:47.021Z,100533.05
2018-04-01T14:34:15.377Z,100541.91
2018-04-01T14:36:42.960Z,100538.13
2018-04-01T14:39:10.457Z,100533.05
2018-04-01T14:41:38.705Z,100535.29
2018-04-01T14:44:07.353Z,100541.50
2018-04-01T14:46:34.948Z,100545.37
2018-04-01T14:49:03.211Z,100546.83
2018-04-01T14:51:30.709Z,100549.70
2018-04-01T14:53:58.180Z,100541.87
2018-04-01T14:56:25.748Z,100545.81
2018-04-01T14:58:53.297Z,100539.63
2018-04-01T15:01:20.772Z,100547.67
2018-04-01T15:03:48.347Z,100543.92
2018-04-01T15:06:16.445Z,100534.84
2018-04-01T15:08:43.956Z,100539.16
2018-04-01T15:11:11.433Z,100546.41
2018-04-01T15:13:38.947Z,100549.67
2018-04-01T15:16:07.263Z,100557.41
2018-04-01T15:18:35.447Z,100557.25
2018-04-01T15:21:03.053Z,100566.02
2018-04-01T15:23:31.380Z,100575.63
2018-04-01T15:25:58.870Z,100569.79
2018-04-01T15:28:26.381Z,100572.04
2018-04-01T15:30:54.781Z,100566.85
2018-04-01T15:33:22.260Z,100579.30
2018-04-01T15:35:49.762Z,100582.00
2018-04-01T15:38:18.255Z,100579.38
2018-04-01T15:40:45.752Z,100582.81
2018-04-01T15:43:13.239Z,100580.06
2018-04-01T15:45:40.738Z,100582.25
2018-04-01T15:48:08.952Z,100587.83
2018-04-01T15:50:36.732Z,100588.52
2018-04-01T15:53:04.205Z,100593.88
2018-04-01T15:55:32.472Z,100582.71
2018-04-01T15:57:59.975Z,100592.34
2018-04-01T16:00:28.417Z,100593.05
2018-04-01T16:02:55.907Z,100595.00
2018-04-01T16:05:23.410Z,100604.47
2018-04-01T16:07:50.902Z,100599.75
2018-04-01T16:10:19.787Z,100607.58
2018-04-01T16:12:47.307Z,100609.36
2018-04-01T16:15:14.996Z,100606.20
2018-04-01T16:17:42.485Z,100606.89
2018-04-01T16:20:11.168Z,100605.37
2018-04-01T16:22:39.486Z,100606.45
2018-04-01T16:25:07.040Z,100607.32
2018-04-01T16:27:35.045Z,100618.87
2018-04-01T16:30:02.561Z,100621.81
2018-04-01T16:32:31.000Z,100622.41
2018-04-01T16:34:59.256Z,100631.56
2018-04-01T16:37:26.788Z,100626.43
2018-04-01T16:39:55.147Z,100633.98
2018-04-01T16:42:22.637Z,100627.73
2018-04-01T16:44:50.508Z,100633.52
2018-04-01T16:47:18.270Z,100632.08
2018-04-01T16:49:45.867Z,100634.25
2018-04-01T16:52:13.348Z,100644.98
2018-04-01T16:54:41.690Z,100650.84
2018-04-01T16:57:09.227Z,100642.14
2018-04-01T16:59:37.160Z,100648.05
2018-04-01T17:02:05.494Z,100655.94
2018-04-01T17:04:32.977Z,100658.78
2018-04-01T17:07:00.479Z,100659.97
2018-04-01T17:09:28.155Z,100668.84
2018-04-01T17:11:55.580Z,100673.39
2018-04-01T17:14:23.871Z,100668.09
2018-04-01T17:16:51.359Z,100676.19
2018-04-01T17:19:18.833Z,100667.59
2018-04-01T17:21:47.457Z,100674.05
2018-04-01T17:24:16.522Z,100685.06
2018-04-01T17:26:44.020Z,100674.16
2018-04-01T17:29:13.773Z,100675.84
2018-04-01T17:31:41.257Z,100678.06
2018-04-01T17:34:08.749Z,100683.50
2018-04-01T17:36:37.021Z,100681.22
2018-04-01T17:39:05.664Z,100685.95
2018-04-01T17:41:33.274Z,100682.03
2018-04-01T17:44:01.751Z,100677.70
2018-04-01T17:46:30.090Z,100680.34
2018-04-01T17:48:57.884Z,100687.23
2018-04-01T17:51:25.765Z,100689.19
2018-04-01T17:53:54.025Z,100693.45
2018-04-01T17:56:21.495Z,100696.61
2018-04-01T17:58:49.802Z,100692.00
2018-04-01T18:01:17.294Z,100695.48
2018-04-01T18:03:45.350Z,100689.92
2018-04-01T18:06:13.582Z,100696.91
2018-04-01T18:08:43.588Z,100701.91
2018-04-01T18:11:11.111Z,100704.21
2018-04-01T18:13:39.487Z,100701.09
2018-04-01T18:16:06.989Z,100702.39
2018-04-01T18:18:34.509Z,100714.00
2018-04-01T18:21:02.017Z,100718.51
2018-04-01T18:23:30.288Z,100722.39
2018-04-01T18:25:57.781Z,100722.19
2018-04-01T18:28:25.276Z,100731.59
2018-04-01T18:30:52.792Z,100731.98
2018-04-01T18:33:20.306Z,100738.75
2018-04-01T18:35:47.790Z,100733.04
2018-04-01T18:38:16.246Z,100736.49
2018-04-01T18:40:43.749Z,100741.78
2018-04-01T18:43:12.420Z,100742.90
2018-04-01T18:45:43.191Z,100753.01
2018-04-01T18:48:11.490Z,100750.33
2018-04-01T18:50:39.204Z,100759.62
2018-04-01T18:53:07.032Z,100764.41
2018-04-01T18:55:34.513Z,100764.52
2018-04-01T18:58:02.037Z,100770.10
2018-04-01T19:00:29.729Z,100768.19
2018-04-01T19:02:57.199Z,100772.50
2018-04-01T19:05:24.677Z,100769.84
2018-04-01T19:07:55.497Z,100780.79
2018-04-01T19:10:23.284Z,100775.98
2018-04-01T19:12:51.720Z,100779.22
2018-04-01T19:15:20.629Z,100785.34
2018-04-01T19:17:51.481Z,100784.53
2018-04-01T19:20:19.809Z,100783.87
2018-04-01T19:22:48.139Z,100781.63
2018-04-01T19:25:17.689Z,100791.02
2018-04-01T19:27:45.958Z,100785.33
2018-04-01T19:30:14.260Z,100798.10
2018-04-01T19:32:42.829Z,100801.17
2018-04-01T19:35:11.116Z,100806.91
2018-04-01T19:37:40.274Z,100804.58
2018-04-01T19:40:10.677Z,100818.89
2018-04-01T19:42:39.056Z,100810.61
2018-04-01T19:45:08.004Z,100812.71
2018-04-01T19:47:36.457Z,100810.21
2018-04-01T19:50:05.492Z,100816.79
2018-04-01T19:52:35.025Z,100816.00
2018-04-01T19:55:05.793Z,100820.88
2018-04-01T19:57:34.941Z,100820.75
2018-04-01T20:00:04.188Z,100822.75
2018-04-01T20:02:34.131Z,100827.63
2018-04-01T20:05:05.605Z,100826.31
2018-04-01T20:07:34.566Z,100830.81
2018-04-01T20:10:02.849Z,100834.92
2018-04-01T20:12:31.829Z,100832.77
2018-04-01T20:15:00.881Z,100833.45
2018-04-01T20:17:29.159Z,100834.20
2018-04-01T20:19:57.660Z,100839.94
2018-04-01T20:22:26.708Z,100838.38
2018-04-01T20:24:56.126Z,100842.14
2018-04-01T20:27:24.506Z,100840.40
2018-04-01T20:29:52.772Z,100843.87
2018-04-01T20:32:21.076Z,100843.23
2018-04-01T20:34:49.353Z,100845.53
2018-04-01T20:37:17.628Z,100843.91
2018-04-01T20:39:46.955Z,100840.18
2018-04-01T20:42:16.648Z,100851.13
2018-04-01T20:44:44.950Z,100853.80
2018-04-01T20:47:13.262Z,100854.22
2018-04-01T20:49:42.624Z,100853.13
2018-04-01T20:52:11.664Z,100852.13
2018-04-01T20:54:40.387Z,100850.60
2018-04-01T20:57:10.738Z,100852.42
2018-04-01T20:59:39.926Z,100854.13
2018-04-01T21:02:10.356Z,100852.89
2018-04-01T21:04:38.633Z,100847.79
2018-04-01T21:07:06.944Z,100850.67
2018-04-01T21:09:36.189Z,100849.94
2018-04-01T21:12:04.470Z,100853.30
2018-04-01T21:14:33.186Z,100855.58
2018-04-01T21:17:01.523Z,100856.67
2018-04-01T21:19:30.469Z,100858.15
2018-04-01T21:21:59.765Z,100855.22
2018-04-01T21:24:28.884Z,100854.75
2018-04-01T21:26:57.882Z,100862.84
2018-04-01T21:29:26.205Z,100859.95
2018-04-01T21:31:54.463Z,100865.91
2018-04-01T21:34:23.375Z,100861.84
2018-04-01T21:36:51.719Z,100870.25
2018-04-01T21:39:20.016Z,100866.24
2018-04-01T21:41:48.341Z,100869.80
2018-04-01T21:44:17.380Z,100870.17
2018-04-01T21:46:45.659Z,100872.92
2018-04-01T21:49:14.397Z,100876.75
2018-04-01T21:51:43.041Z,100874.95
2018-04-01T21:54:13.030Z,100877.41
2018-04-01T21:56:41.580Z,100886.17
2018-04-01T21:59:09.827Z,100873.36
2018-04-01T22:01:38.421Z,100876.33
2018-04-01T22:04:06.716Z,100881.69
2018-04-01T22:06:35.147Z,100888.77
2018-04-01T22:09:03.424Z,100876.91
2018-04-01T22:11:32.525Z,100876.82
2018-04-01T22:14:01.792Z,100875.96
2018-04-01T22:16:30.852Z,100881.68
2018-04-01T22:18:59.577Z,100892.31
2018-04-01T22:21:28.617Z,100891.80
2018-04-01T22:23:57.458Z,100891.14
2018-04-01T22:26:26.685Z,100893.83
2018-04-01T22:28:54.974Z,100902.77
2018-04-01T22:31:24.208Z,100897.41
2018-04-01T22:33:52.432Z,100902.43
2018-04-01T22:36:20.708Z,100901.63
2018-04-01T22:38:49.008Z,100896.24
2018-04-01T22:41:17.287Z,100895.48
2018-04-01T22:43:45.597Z,100899.30
2018-04-01T22:46:13.950Z,100896.98
2018-04-01T22:48:43.576Z,100899.50
2018-04-01T22:51:12.405Z,100903.14
2018-04-01T22:53:41.445Z,100902.84
2018-04-01T22:56:10.049Z,100915.18
2018-04-01T22:58:38.512Z,100903.75
2018-04-01T23:01:08.436Z,100912.69
2018-04-01T23:03:36.721Z,100907.75
2018-04-01T23:06:05.108Z,100905.64
2018-04-01T23:08:33.732Z,100907.98
2018-04-01T23:11:02.885Z,100909.98
2018-04-01T23:13:31.167Z,100905.58
2018-04-01T23:15:59.988Z,100900.67
2018-04-01T23:18:30.174Z,100905.35
2018-04-01T23:20:58.449Z,100907.33
2018-04-01T23:23:26.740Z,100913.19
2018-04-01T23:25:55.364Z,100908.22
2018-04-01T23:28:24.422Z,100902.55
2018-04-01T23:30:52.692Z,100896.84
2018-04-01T23:33:21.125Z,100904.72
2018-04-01T23:35:49.417Z,100909.59
2018-04-01T23:38:18.651Z,100911.53
2018-04-01T23:40:47.026Z,100922.06
2018-04-01T23:43:15.327Z,100924.57
2018-04-01T23:45:44.705Z,100922.64
2018-04-01T23:48:12.991Z,100923.33
2018-04-01T23:50:42.193Z,100927.29
2018-04-01T23:53:10.673Z,100926.59
2018-04-01T23:55:38.957Z,100922.61
2018-04-01T23:58:07.859Z,100928.39
